sensor_id;sensor_type;location;lat;lon;timestamp;P1;durP1;ratioP1;P2;durP2;ratioP2
22812;SDS011;11573;51.334;3.244;2022-11-15T00:01:44;96.00;;;47.95;;
22812;SDS011;11573;51.334;3.244;2022-11-15T00:04:30;97.10;;;48.70;;
22812;SDS011;11573;51.334;3.244;2022-11-15T00:07:15;91.53;;;48.75;;
22812;SDS011;11573;51.334;3.244;2022-11-15T00:10:20;92.53;;;46.65;;
22812;SDS011;11573;51.334;3.244;2022-11-15T00:13:06;83.82;;;46.17;;
22812;SDS011;11573;51.334;3.244;2022-11-15T00:15:57;89.40;;;45.30;;
22812;SDS011;11573;51.334;3.244;2022-11-15T00:18:44;84.90;;;44.60;;
22812;SDS011;11573;51.334;3.244;2022-11-15T00:21:34;80.13;;;42.38;;
22812;SDS011;11573;51.334;3.244;2022-11-15T00:24:20;78.78;;;43.25;;
22812;SDS011;11573;51.334;3.244;2022-11-15T00:27:05;74.90;;;40.53;;
22812;SDS011;11573;51.334;3.244;2022-11-15T00:29:52;72.65;;;40.60;;
22812;SDS011;11573;51.334;3.244;2022-11-15T00:32:38;71.00;;;40.33;;
22812;SDS011;11573;51.334;3.244;2022-11-15T00:35:23;69.50;;;40.17;;
22812;SDS011;11573;51.334;3.244;2022-11-15T00:38:09;69.90;;;38.38;;
22812;SDS011;11573;51.334;3.244;2022-11-15T00:40:55;68.40;;;37.95;;
22812;SDS011;11573;51.334;3.244;2022-11-15T00:43:40;67.05;;;39.15;;
22812;SDS011;11573;51.334;3.244;2022-11-15T00:46:28;71.35;;;38.92;;
22812;SDS011;11573;51.334;3.244;2022-11-15T00:49:14;71.95;;;39.30;;
22812;SDS011;11573;51.334;3.244;2022-11-15T00:51:59;72.65;;;39.67;;
22812;SDS011;11573;51.334;3.244;2022-11-15T00:54:45;66.25;;;38.25;;
22812;SDS011;11573;51.334;3.244;2022-11-15T00:57:30;69.07;;;39.25;;
22812;SDS011;11573;51.334;3.244;2022-11-15T01:00:16;64.32;;;37.45;;
22812;SDS011;11573;51.334;3.244;2022-11-15T01:03:01;63.95;;;35.35;;
22812;SDS011;11573;51.334;3.244;2022-11-15T01:05:47;54.47;;;32.45;;
22812;SDS011;11573;51.334;3.244;2022-11-15T01:08:32;55.25;;;30.83;;
22812;SDS011;11573;51.334;3.244;2022-11-15T01:11:18;51.65;;;30.23;;
22812;SDS011;11573;51.334;3.244;2022-11-15T01:14:04;47.78;;;27.70;;
22812;SDS011;11573;51.334;3.244;2022-11-15T01:16:50;52.75;;;26.45;;
22812;SDS011;11573;51.334;3.244;2022-11-15T01:19:35;49.15;;;22.55;;
22812;SDS011;11573;51.334;3.244;2022-11-15T01:22:21;46.47;;;21.60;;
22812;SDS011;11573;51.334;3.244;2022-11-15T01:25:06;48.25;;;21.42;;
22812;SDS011;11573;51.334;3.244;2022-11-15T01:27:52;41.83;;;22.30;;
22812;SDS011;11573;51.334;3.244;2022-11-15T01:30:37;40.30;;;19.63;;
22812;SDS011;11573;51.334;3.244;2022-11-15T01:33:23;36.47;;;18.42;;
22812;SDS011;11573;51.334;3.244;2022-11-15T01:36:18;42.30;;;20.25;;
22812;SDS011;11573;51.334;3.244;2022-11-15T01:39:09;38.92;;;18.80;;
22812;SDS011;11573;51.334;3.244;2022-11-15T01:41:54;39.42;;;19.17;;
22812;SDS011;11573;51.334;3.244;2022-11-15T01:47:34;36.55;;;18.75;;
22812;SDS011;11573;51.334;3.244;2022-11-15T01:50:25;35.78;;;18.83;;
22812;SDS011;11573;51.334;3.244;2022-11-15T01:53:14;35.78;;;17.67;;
22812;SDS011;11573;51.334;3.244;2022-11-15T01:56:05;44.75;;;17.27;;
22812;SDS011;11573;51.334;3.244;2022-11-15T01:58:53;39.08;;;16.88;;
22812;SDS011;11573;51.334;3.244;2022-11-15T02:01:41;34.78;;;15.27;;
22812;SDS011;11573;51.334;3.244;2022-11-15T02:07:16;31.40;;;13.65;;
22812;SDS011;11573;51.334;3.244;2022-11-15T02:10:08;35.22;;;12.77;;
22812;SDS011;11573;51.334;3.244;2022-11-15T02:12:59;34.75;;;12.77;;
22812;SDS011;11573;51.334;3.244;2022-11-15T02:15:51;30.70;;;12.27;;
22812;SDS011;11573;51.334;3.244;2022-11-15T02:41:02;31.08;;;13.27;;
22812;SDS011;11573;51.334;3.244;2022-11-15T02:43:17;35.50;;;13.90;;
22812;SDS011;11573;51.334;3.244;2022-11-15T02:50:02;33.53;;;14.90;;
22812;SDS011;11573;51.334;3.244;2022-11-15T02:52:52;34.45;;;14.00;;
22812;SDS011;11573;51.334;3.244;2022-11-15T02:55:38;28.75;;;14.68;;
22812;SDS011;11573;51.334;3.244;2022-11-15T03:07:30;26.13;;;10.57;;
22812;SDS011;11573;51.334;3.244;2022-11-15T03:13:21;20.65;;;8.95;;
22812;SDS011;11573;51.334;3.244;2022-11-15T03:22:33;17.38;;;8.05;;
22812;SDS011;11573;51.334;3.244;2022-11-15T03:25:25;33.28;;;9.18;;
22812;SDS011;11573;51.334;3.244;2022-11-15T03:28:15;23.17;;;7.35;;
22812;SDS011;11573;51.334;3.244;2022-11-15T03:31:07;20.85;;;7.25;;
22812;SDS011;11573;51.334;3.244;2022-11-15T03:37:21;16.53;;;6.77;;
22812;SDS011;11573;51.334;3.244;2022-11-15T03:40:10;15.75;;;6.25;;
22812;SDS011;11573;51.334;3.244;2022-11-15T03:43:15;23.77;;;6.43;;
22812;SDS011;11573;51.334;3.244;2022-11-15T03:46:24;17.88;;;6.20;;
22812;SDS011;11573;51.334;3.244;2022-11-15T03:49:15;27.42;;;6.60;;
22812;SDS011;11573;51.334;3.244;2022-11-15T03:52:06;16.80;;;5.50;;
22812;SDS011;11573;51.334;3.244;2022-11-15T03:54:53;22.02;;;6.60;;
22812;SDS011;11573;51.334;3.244;2022-11-15T03:57:41;23.00;;;7.20;;
22812;SDS011;11573;51.334;3.244;2022-11-15T04:03:12;19.42;;;7.28;;
22812;SDS011;11573;51.334;3.244;2022-11-15T04:05:58;26.17;;;7.00;;
22812;SDS011;11573;51.334;3.244;2022-11-15T04:08:43;21.67;;;6.95;;
22812;SDS011;11573;51.334;3.244;2022-11-15T04:11:29;24.60;;;7.22;;
22812;SDS011;11573;51.334;3.244;2022-11-15T04:14:14;25.95;;;7.43;;
22812;SDS011;11573;51.334;3.244;2022-11-15T04:17:00;15.95;;;6.97;;
22812;SDS011;11573;51.334;3.244;2022-11-15T04:19:45;12.27;;;6.40;;
22812;SDS011;11573;51.334;3.244;2022-11-15T04:22:51;27.33;;;7.85;;
22812;SDS011;11573;51.334;3.244;2022-11-15T04:25:56;17.17;;;6.88;;
22812;SDS011;11573;51.334;3.244;2022-11-15T04:28:48;20.20;;;6.75;;
22812;SDS011;11573;51.334;3.244;2022-11-15T04:31:53;15.68;;;7.40;;
22812;SDS011;11573;51.334;3.244;2022-11-15T04:34:38;14.32;;;6.25;;
22812;SDS011;11573;51.334;3.244;2022-11-15T04:37:24;18.98;;;7.18;;
22812;SDS011;11573;51.334;3.244;2022-11-15T04:40:09;18.80;;;6.80;;
22812;SDS011;11573;51.334;3.244;2022-11-15T04:42:55;17.45;;;6.88;;
22812;SDS011;11573;51.334;3.244;2022-11-15T04:45:47;22.40;;;6.82;;
22812;SDS011;11573;51.334;3.244;2022-11-15T04:48:32;26.67;;;6.55;;
22812;SDS011;11573;51.334;3.244;2022-11-15T04:51:18;18.27;;;6.82;;
22812;SDS011;11573;51.334;3.244;2022-11-15T04:56:49;15.68;;;6.38;;
22812;SDS011;11573;51.334;3.244;2022-11-15T04:59:35;18.45;;;6.43;;
22812;SDS011;11573;51.334;3.244;2022-11-15T05:02:20;17.90;;;6.28;;
22812;SDS011;11573;51.334;3.244;2022-11-15T05:05:06;19.92;;;7.70;;
22812;SDS011;11573;51.334;3.244;2022-11-15T05:07:51;16.58;;;6.43;;
22812;SDS011;11573;51.334;3.244;2022-11-15T05:10:37;18.00;;;6.88;;
22812;SDS011;11573;51.334;3.244;2022-11-15T05:13:22;15.70;;;5.65;;
22812;SDS011;11573;51.334;3.244;2022-11-15T05:16:08;14.27;;;6.70;;
22812;SDS011;11573;51.334;3.244;2022-11-15T05:18:54;16.60;;;6.47;;
22812;SDS011;11573;51.334;3.244;2022-11-15T05:21:39;21.70;;;7.22;;
22812;SDS011;11573;51.334;3.244;2022-11-15T05:24:25;18.60;;;8.02;;
22812;SDS011;11573;51.334;3.244;2022-11-15T05:27:10;22.90;;;8.18;;
22812;SDS011;11573;51.334;3.244;2022-11-15T05:29:56;22.33;;;9.15;;
22812;SDS011;11573;51.334;3.244;2022-11-15T05:32:42;16.65;;;7.50;;
22812;SDS011;11573;51.334;3.244;2022-11-15T05:35:36;18.67;;;8.70;;
22812;SDS011;11573;51.334;3.244;2022-11-15T05:38:25;23.13;;;9.95;;
22812;SDS011;11573;51.334;3.244;2022-11-15T05:41:11;23.42;;;9.27;;
22812;SDS011;11573;51.334;3.244;2022-11-15T05:43:58;17.38;;;8.52;;
22812;SDS011;11573;51.334;3.244;2022-11-15T05:46:45;19.48;;;9.07;;
22812;SDS011;11573;51.334;3.244;2022-11-15T05:49:33;23.45;;;10.02;;
22812;SDS011;11573;51.334;3.244;2022-11-15T05:52:24;23.83;;;10.05;;
22812;SDS011;11573;51.334;3.244;2022-11-15T05:55:12;21.17;;;11.05;;
22812;SDS011;11573;51.334;3.244;2022-11-15T05:57:59;22.45;;;10.60;;
22812;SDS011;11573;51.334;3.244;2022-11-15T06:00:45;23.13;;;11.68;;
22812;SDS011;11573;51.334;3.244;2022-11-15T06:03:31;24.27;;;11.68;;
22812;SDS011;11573;51.334;3.244;2022-11-15T06:09:02;18.55;;;11.80;;
22812;SDS011;11573;51.334;3.244;2022-11-15T06:11:47;26.02;;;12.80;;
22812;SDS011;11573;51.334;3.244;2022-11-15T06:14:33;24.02;;;12.50;;
22812;SDS011;11573;51.334;3.244;2022-11-15T06:17:18;27.63;;;12.45;;
22812;SDS011;11573;51.334;3.244;2022-11-15T06:20:04;24.83;;;13.68;;
22812;SDS011;11573;51.334;3.244;2022-11-15T06:22:50;22.20;;;12.48;;
22812;SDS011;11573;51.334;3.244;2022-11-15T06:25:36;34.47;;;13.52;;
22812;SDS011;11573;51.334;3.244;2022-11-15T06:28:21;25.77;;;13.27;;
22812;SDS011;11573;51.334;3.244;2022-11-15T06:31:08;32.20;;;13.88;;
22812;SDS011;11573;51.334;3.244;2022-11-15T06:33:55;24.73;;;13.63;;
22812;SDS011;11573;51.334;3.244;2022-11-15T06:36:41;20.95;;;12.70;;
22812;SDS011;11573;51.334;3.244;2022-11-15T06:39:26;22.33;;;12.88;;
22812;SDS011;11573;51.334;3.244;2022-11-15T06:42:12;28.67;;;13.35;;
22812;SDS011;11573;51.334;3.244;2022-11-15T06:44:57;21.13;;;12.13;;
22812;SDS011;11573;51.334;3.244;2022-11-15T06:47:46;23.58;;;12.45;;
22812;SDS011;11573;51.334;3.244;2022-11-15T06:50:31;25.90;;;12.57;;
22812;SDS011;11573;51.334;3.244;2022-11-15T06:53:17;22.27;;;12.93;;
22812;SDS011;11573;51.334;3.244;2022-11-15T06:56:03;29.55;;;13.05;;
22812;SDS011;11573;51.334;3.244;2022-11-15T06:58:51;25.80;;;13.98;;
22812;SDS011;11573;51.334;3.244;2022-11-15T07:01:36;20.17;;;13.43;;
22812;SDS011;11573;51.334;3.244;2022-11-15T07:04:22;25.30;;;14.25;;
22812;SDS011;11573;51.334;3.244;2022-11-15T07:07:07;21.50;;;13.75;;
22812;SDS011;11573;51.334;3.244;2022-11-15T07:09:53;26.42;;;15.27;;
22812;SDS011;11573;51.334;3.244;2022-11-15T07:12:38;27.05;;;15.82;;
22812;SDS011;11573;51.334;3.244;2022-11-15T07:15:24;36.92;;;16.38;;
22812;SDS011;11573;51.334;3.244;2022-11-15T07:18:11;27.08;;;16.00;;
22812;SDS011;11573;51.334;3.244;2022-11-15T07:20:59;28.48;;;17.95;;
22812;SDS011;11573;51.334;3.244;2022-11-15T07:23:49;32.05;;;17.95;;
22812;SDS011;11573;51.334;3.244;2022-11-15T07:26:34;27.60;;;19.48;;
22812;SDS011;11573;51.334;3.244;2022-11-15T07:29:20;32.88;;;20.00;;
22812;SDS011;11573;51.334;3.244;2022-11-15T07:32:06;36.28;;;19.92;;
22812;SDS011;11573;51.334;3.244;2022-11-15T07:34:51;36.80;;;20.15;;
22812;SDS011;11573;51.334;3.244;2022-11-15T07:37:37;29.90;;;20.40;;
22812;SDS011;11573;51.334;3.244;2022-11-15T07:40:22;36.00;;;21.55;;
22812;SDS011;11573;51.334;3.244;2022-11-15T07:43:09;37.53;;;21.17;;
22812;SDS011;11573;51.334;3.244;2022-11-15T07:45:55;39.40;;;22.95;;
22812;SDS011;11573;51.334;3.244;2022-11-15T07:48:43;35.55;;;21.95;;
22812;SDS011;11573;51.334;3.244;2022-11-15T07:51:32;38.30;;;20.40;;
22812;SDS011;11573;51.334;3.244;2022-11-15T07:54:18;38.03;;;21.65;;
22812;SDS011;11573;51.334;3.244;2022-11-15T07:57:04;38.70;;;21.17;;
22812;SDS011;11573;51.334;3.244;2022-11-15T07:59:51;36.58;;;21.30;;
22812;SDS011;11573;51.334;3.244;2022-11-15T08:02:37;36.25;;;20.15;;
22812;SDS011;11573;51.334;3.244;2022-11-15T08:05:23;37.05;;;21.38;;
22812;SDS011;11573;51.334;3.244;2022-11-15T08:08:09;36.80;;;19.85;;
22812;SDS011;11573;51.334;3.244;2022-11-15T08:10:57;44.30;;;20.73;;
22812;SDS011;11573;51.334;3.244;2022-11-15T08:13:43;38.95;;;19.55;;
22812;SDS011;11573;51.334;3.244;2022-11-15T08:16:28;36.40;;;19.63;;
22812;SDS011;11573;51.334;3.244;2022-11-15T08:19:14;32.58;;;18.15;;
22812;SDS011;11573;51.334;3.244;2022-11-15T08:21:59;42.22;;;18.27;;
22812;SDS011;11573;51.334;3.244;2022-11-15T08:24:45;28.40;;;16.77;;
22812;SDS011;11573;51.334;3.244;2022-11-15T08:27:31;43.45;;;17.98;;
22812;SDS011;11573;51.334;3.244;2022-11-15T08:30:16;35.55;;;17.33;;
22812;SDS011;11573;51.334;3.244;2022-11-15T08:33:02;39.53;;;16.92;;
22812;SDS011;11573;51.334;3.244;2022-11-15T08:35:47;33.80;;;15.55;;
22812;SDS011;11573;51.334;3.244;2022-11-15T08:38:33;26.52;;;15.35;;
22812;SDS011;11573;51.334;3.244;2022-11-15T08:44:12;24.20;;;12.43;;
22812;SDS011;11573;51.334;3.244;2022-11-15T08:46:58;22.67;;;12.98;;
22812;SDS011;11573;51.334;3.244;2022-11-15T08:49:43;25.45;;;12.70;;
22812;SDS011;11573;51.334;3.244;2022-11-15T08:52:29;26.63;;;12.25;;
22812;SDS011;11573;51.334;3.244;2022-11-15T08:55:14;21.83;;;11.88;;
22812;SDS011;11573;51.334;3.244;2022-11-15T08:58:01;28.95;;;11.77;;
22812;SDS011;11573;51.334;3.244;2022-11-15T09:00:47;20.13;;;11.68;;
22812;SDS011;11573;51.334;3.244;2022-11-15T09:03:33;24.35;;;11.05;;
22812;SDS011;11573;51.334;3.244;2022-11-15T09:06:18;21.85;;;9.93;;
22812;SDS011;11573;51.334;3.244;2022-11-15T09:09:03;18.05;;;9.35;;
22812;SDS011;11573;51.334;3.244;2022-11-15T09:11:49;17.00;;;8.70;;
22812;SDS011;11573;51.334;3.244;2022-11-15T09:17:20;16.30;;;8.05;;
22812;SDS011;11573;51.334;3.244;2022-11-15T09:20:09;18.55;;;7.63;;
22812;SDS011;11573;51.334;3.244;2022-11-15T09:22:58;13.95;;;7.70;;
22812;SDS011;11573;51.334;3.244;2022-11-15T09:25:45;14.68;;;6.68;;
22812;SDS011;11573;51.334;3.244;2022-11-15T09:28:30;13.88;;;5.38;;
22812;SDS011;11573;51.334;3.244;2022-11-15T09:31:18;10.52;;;4.78;;
22812;SDS011;11573;51.334;3.244;2022-11-15T09:34:06;13.57;;;4.63;;
22812;SDS011;11573;51.334;3.244;2022-11-15T09:36:52;13.70;;;4.38;;
22812;SDS011;11573;51.334;3.244;2022-11-15T09:39:37;13.02;;;3.53;;
22812;SDS011;11573;51.334;3.244;2022-11-15T09:48:58;9.32;;;3.15;;
22812;SDS011;11573;51.334;3.244;2022-11-15T09:51:56;10.07;;;3.22;;
22812;SDS011;11573;51.334;3.244;2022-11-15T09:54:31;12.07;;;3.25;;
22812;SDS011;11573;51.334;3.244;2022-11-15T10:03:11;14.80;;;3.13;;
22812;SDS011;11573;51.334;3.244;2022-11-15T10:05:45;10.98;;;2.63;;
22812;SDS011;11573;51.334;3.244;2022-11-15T10:11:08;12.38;;;2.90;;
22812;SDS011;11573;51.334;3.244;2022-11-15T10:14:10;10.13;;;2.88;;
22812;SDS011;11573;51.334;3.244;2022-11-15T10:19:34;11.02;;;2.33;;
22812;SDS011;11573;51.334;3.244;2022-11-15T10:27:35;9.07;;;2.10;;
22812;SDS011;11573;51.334;3.244;2022-11-15T10:30:03;11.27;;;2.22;;
22812;SDS011;11573;51.334;3.244;2022-11-15T10:32:36;6.80;;;2.03;;
22812;SDS011;11573;51.334;3.244;2022-11-15T10:35:17;12.77;;;2.80;;
22812;SDS011;11573;51.334;3.244;2022-11-15T10:37:45;9.45;;;2.30;;
22812;SDS011;11573;51.334;3.244;2022-11-15T10:40:19;9.75;;;2.15;;
22812;SDS011;11573;51.334;3.244;2022-11-15T10:42:49;13.27;;;2.03;;
22812;SDS011;11573;51.334;3.244;2022-11-15T10:45:36;8.00;;;2.00;;
22812;SDS011;11573;51.334;3.244;2022-11-15T10:50:44;9.73;;;2.15;;
22812;SDS011;11573;51.334;3.244;2022-11-15T10:53:15;11.82;;;2.33;;
22812;SDS011;11573;51.334;3.244;2022-11-15T10:55:47;6.45;;;2.00;;
22812;SDS011;11573;51.334;3.244;2022-11-15T10:58:35;10.10;;;2.10;;
22812;SDS011;11573;51.334;3.244;2022-11-15T11:01:16;9.27;;;2.00;;
22812;SDS011;11573;51.334;3.244;2022-11-15T11:03:44;6.30;;;1.85;;
22812;SDS011;11573;51.334;3.244;2022-11-15T11:06:25;6.50;;;2.33;;
22812;SDS011;11573;51.334;3.244;2022-11-15T11:09:03;8.35;;;2.00;;
22812;SDS011;11573;51.334;3.244;2022-11-15T11:11:44;13.13;;;2.88;;
22812;SDS011;11573;51.334;3.244;2022-11-15T11:14:20;8.55;;;1.92;;
22812;SDS011;11573;51.334;3.244;2022-11-15T11:19:30;10.25;;;2.95;;
22812;SDS011;11573;51.334;3.244;2022-11-15T11:35:12;12.20;;;2.70;;
22812;SDS011;11573;51.334;3.244;2022-11-15T11:49:32;13.18;;;2.75;;
22812;SDS011;11573;51.334;3.244;2022-11-15T11:52:03;9.77;;;2.53;;
22812;SDS011;11573;51.334;3.244;2022-11-15T11:54:50;8.50;;;2.40;;
22812;SDS011;11573;51.334;3.244;2022-11-15T11:57:28;7.93;;;2.42;;
22812;SDS011;11573;51.334;3.244;2022-11-15T12:00:18;10.20;;;2.58;;
22812;SDS011;11573;51.334;3.244;2022-11-15T12:02:54;8.27;;;2.00;;
22812;SDS011;11573;51.334;3.244;2022-11-15T12:05:35;12.60;;;2.25;;
22812;SDS011;11573;51.334;3.244;2022-11-15T12:08:21;10.93;;;2.67;;
22812;SDS011;11573;51.334;3.244;2022-11-15T12:11:38;7.97;;;1.95;;
22812;SDS011;11573;51.334;3.244;2022-11-15T12:13:43;9.68;;;2.33;;
22812;SDS011;11573;51.334;3.244;2022-11-15T12:18:44;9.55;;;2.38;;
22812;SDS011;11573;51.334;3.244;2022-11-15T12:21:28;7.85;;;2.47;;
22812;SDS011;11573;51.334;3.244;2022-11-15T12:24:17;5.75;;;2.10;;
22812;SDS011;11573;51.334;3.244;2022-11-15T12:26:55;14.90;;;2.90;;
22812;SDS011;11573;51.334;3.244;2022-11-15T12:29:35;13.50;;;2.80;;
22812;SDS011;11573;51.334;3.244;2022-11-15T12:32:12;10.63;;;2.30;;
22812;SDS011;11573;51.334;3.244;2022-11-15T12:34:59;7.22;;;2.05;;
22812;SDS011;11573;51.334;3.244;2022-11-15T12:45:35;13.97;;;2.50;;
22812;SDS011;11573;51.334;3.244;2022-11-15T12:50:56;11.52;;;2.92;;
22812;SDS011;11573;51.334;3.244;2022-11-15T12:58:41;8.65;;;2.78;;
22812;SDS011;11573;51.334;3.244;2022-11-15T13:07:00;8.93;;;2.60;;
22812;SDS011;11573;51.334;3.244;2022-11-15T13:14:54;5.82;;;1.83;;
22812;SDS011;11573;51.334;3.244;2022-11-15T13:17:48;9.27;;;2.45;;
22812;SDS011;11573;51.334;3.244;2022-11-15T13:31:13;5.25;;;1.90;;
22812;SDS011;11573;51.334;3.244;2022-11-15T13:33:53;8.60;;;2.65;;
22812;SDS011;11573;51.334;3.244;2022-11-15T13:36:27;5.63;;;2.20;;
22812;SDS011;11573;51.334;3.244;2022-11-15T13:41:30;5.32;;;1.90;;
22812;SDS011;11573;51.334;3.244;2022-11-15T13:44:02;7.13;;;2.33;;
22812;SDS011;11573;51.334;3.244;2022-11-15T13:46:33;6.28;;;2.40;;
22812;SDS011;11573;51.334;3.244;2022-11-15T13:49:01;8.48;;;2.65;;
22812;SDS011;11573;51.334;3.244;2022-11-15T13:51:33;10.55;;;2.70;;
22812;SDS011;11573;51.334;3.244;2022-11-15T13:56:56;6.25;;;2.20;;
22812;SDS011;11573;51.334;3.244;2022-11-15T14:01:57;6.32;;;2.20;;
22812;SDS011;11573;51.334;3.244;2022-11-15T14:04:29;7.60;;;2.72;;
22812;SDS011;11573;51.334;3.244;2022-11-15T14:07:00;5.60;;;2.50;;
22812;SDS011;11573;51.334;3.244;2022-11-15T14:09:32;5.30;;;2.70;;
22812;SDS011;11573;51.334;3.244;2022-11-15T14:14:55;6.78;;;2.78;;
22812;SDS011;11573;51.334;3.244;2022-11-15T14:19:57;5.63;;;3.15;;
22812;SDS011;11573;51.334;3.244;2022-11-15T14:22:25;6.45;;;3.13;;
22812;SDS011;11573;51.334;3.244;2022-11-15T14:27:33;6.40;;;2.88;;
22812;SDS011;11573;51.334;3.244;2022-11-15T14:30:00;8.00;;;3.17;;
22812;SDS011;11573;51.334;3.244;2022-11-15T14:32:28;8.52;;;3.55;;
22812;SDS011;11573;51.334;3.244;2022-11-15T14:35:12;5.90;;;3.35;;
22812;SDS011;11573;51.334;3.244;2022-11-15T14:37:47;5.47;;;2.97;;
22812;SDS011;11573;51.334;3.244;2022-11-15T14:40:15;6.28;;;3.10;;
22812;SDS011;11573;51.334;3.244;2022-11-15T14:42:47;7.85;;;3.60;;
22812;SDS011;11573;51.334;3.244;2022-11-15T14:45:16;9.32;;;4.80;;
22812;SDS011;11573;51.334;3.244;2022-11-15T14:47:47;9.15;;;6.05;;
22812;SDS011;11573;51.334;3.244;2022-11-15T14:50:15;8.77;;;4.60;;
22812;SDS011;11573;51.334;3.244;2022-11-15T14:52:44;12.77;;;6.22;;
22812;SDS011;11573;51.334;3.244;2022-11-15T14:57:47;7.15;;;3.92;;
22812;SDS011;11573;51.334;3.244;2022-11-15T15:00:14;10.05;;;4.40;;
22812;SDS011;11573;51.334;3.244;2022-11-15T15:02:43;7.32;;;3.60;;
22812;SDS011;11573;51.334;3.244;2022-11-15T15:07:49;8.38;;;5.15;;
22812;SDS011;11573;51.334;3.244;2022-11-15T15:10:19;11.55;;;6.10;;
22812;SDS011;11573;51.334;3.244;2022-11-15T15:13:25;6.13;;;5.00;;
22812;SDS011;11573;51.334;3.244;2022-11-15T15:15:52;11.55;;;5.22;;
22812;SDS011;11573;51.334;3.244;2022-11-15T15:18:19;7.50;;;4.60;;
22812;SDS011;11573;51.334;3.244;2022-11-15T15:20:48;7.43;;;4.10;;
22812;SDS011;11573;51.334;3.244;2022-11-15T15:23:26;5.78;;;5.07;;
22812;SDS011;11573;51.334;3.244;2022-11-15T15:25:55;8.88;;;4.22;;
22812;SDS011;11573;51.334;3.244;2022-11-15T15:28:22;5.10;;;4.32;;
22812;SDS011;11573;51.334;3.244;2022-11-15T15:30:53;12.23;;;5.10;;
22812;SDS011;11573;51.334;3.244;2022-11-15T15:33:20;6.97;;;5.25;;
22812;SDS011;11573;51.334;3.244;2022-11-15T15:35:47;5.72;;;4.82;;
22812;SDS011;11573;51.334;3.244;2022-11-15T15:38:14;9.18;;;5.45;;
22812;SDS011;11573;51.334;3.244;2022-11-15T15:40:42;9.25;;;5.45;;
22812;SDS011;11573;51.334;3.244;2022-11-15T15:43:09;7.18;;;6.47;;
22812;SDS011;11573;51.334;3.244;2022-11-15T15:45:37;10.43;;;6.55;;
22812;SDS011;11573;51.334;3.244;2022-11-15T15:48:10;9.38;;;7.45;;
22812;SDS011;11573;51.334;3.244;2022-11-15T15:50:40;14.35;;;9.38;;
22812;SDS011;11573;51.334;3.244;2022-11-15T15:53:12;13.73;;;7.95;;
22812;SDS011;11573;51.334;3.244;2022-11-15T15:55:40;13.02;;;7.95;;
22812;SDS011;11573;51.334;3.244;2022-11-15T15:58:08;10.77;;;8.43;;
22812;SDS011;11573;51.334;3.244;2022-11-15T16:00:35;7.10;;;6.38;;
22812;SDS011;11573;51.334;3.244;2022-11-15T16:03:03;11.35;;;7.70;;
22812;SDS011;11573;51.334;3.244;2022-11-15T16:05:30;11.73;;;8.00;;
22812;SDS011;11573;51.334;3.244;2022-11-15T16:07:56;10.20;;;7.28;;
22812;SDS011;11573;51.334;3.244;2022-11-15T16:10:27;8.90;;;8.00;;
22812;SDS011;11573;51.334;3.244;2022-11-15T16:12:56;12.35;;;8.80;;
22812;SDS011;11573;51.334;3.244;2022-11-15T16:15:26;15.02;;;9.05;;
22812;SDS011;11573;51.334;3.244;2022-11-15T16:17:56;12.05;;;7.93;;
22812;SDS011;11573;51.334;3.244;2022-11-15T16:23:03;13.18;;;8.85;;
22812;SDS011;11573;51.334;3.244;2022-11-15T16:25:43;12.00;;;8.65;;
22812;SDS011;11573;51.334;3.244;2022-11-15T16:28:21;10.50;;;8.13;;
22812;SDS011;11573;51.334;3.244;2022-11-15T16:31:00;11.70;;;8.68;;
22812;SDS011;11573;51.334;3.244;2022-11-15T16:33:29;11.15;;;9.35;;
22812;SDS011;11573;51.334;3.244;2022-11-15T16:35:57;10.88;;;8.77;;
22812;SDS011;11573;51.334;3.244;2022-11-15T16:38:25;12.18;;;9.85;;
22812;SDS011;11573;51.334;3.244;2022-11-15T16:40:52;10.05;;;8.95;;
22812;SDS011;11573;51.334;3.244;2022-11-15T16:43:20;10.68;;;8.63;;
22812;SDS011;11573;51.334;3.244;2022-11-15T16:45:48;11.00;;;8.90;;
22812;SDS011;11573;51.334;3.244;2022-11-15T16:48:26;13.05;;;9.32;;
22812;SDS011;11573;51.334;3.244;2022-11-15T16:50:55;17.02;;;14.07;;
22812;SDS011;11573;51.334;3.244;2022-11-15T16:53:24;17.25;;;15.35;;
22812;SDS011;11573;51.334;3.244;2022-11-15T16:55:53;15.40;;;13.80;;
22812;SDS011;11573;51.334;3.244;2022-11-15T16:58:22;10.35;;;9.25;;
22812;SDS011;11573;51.334;3.244;2022-11-15T17:00:50;37.95;;;26.52;;
22812;SDS011;11573;51.334;3.244;2022-11-15T17:03:19;14.77;;;12.63;;
22812;SDS011;11573;51.334;3.244;2022-11-15T17:05:50;13.75;;;12.23;;
22812;SDS011;11573;51.334;3.244;2022-11-15T17:08:18;12.00;;;10.80;;
22812;SDS011;11573;51.334;3.244;2022-11-15T17:10:47;15.25;;;13.40;;
22812;SDS011;11573;51.334;3.244;2022-11-15T17:13:15;16.58;;;13.68;;
22812;SDS011;11573;51.334;3.244;2022-11-15T17:15:43;15.57;;;13.02;;
22812;SDS011;11573;51.334;3.244;2022-11-15T17:18:10;12.60;;;11.32;;
22812;SDS011;11573;51.334;3.244;2022-11-15T17:20:41;12.32;;;11.00;;
22812;SDS011;11573;51.334;3.244;2022-11-15T17:23:11;16.55;;;14.43;;
22812;SDS011;11573;51.334;3.244;2022-11-15T17:25:39;14.95;;;11.30;;
22812;SDS011;11573;51.334;3.244;2022-11-15T17:28:07;12.90;;;11.10;;
22812;SDS011;11573;51.334;3.244;2022-11-15T17:30:34;15.45;;;13.27;;
22812;SDS011;11573;51.334;3.244;2022-11-15T17:33:01;13.52;;;9.02;;
22812;SDS011;11573;51.334;3.244;2022-11-15T17:35:27;10.38;;;7.82;;
22812;SDS011;11573;51.334;3.244;2022-11-15T17:37:54;9.13;;;8.20;;
22812;SDS011;11573;51.334;3.244;2022-11-15T17:40:21;11.90;;;8.15;;
22812;SDS011;11573;51.334;3.244;2022-11-15T17:42:48;8.45;;;7.65;;
22812;SDS011;11573;51.334;3.244;2022-11-15T17:45:15;12.07;;;9.73;;
22812;SDS011;11573;51.334;3.244;2022-11-15T17:47:42;11.88;;;9.52;;
22812;SDS011;11573;51.334;3.244;2022-11-15T17:50:09;10.70;;;9.60;;
22812;SDS011;11573;51.334;3.244;2022-11-15T17:52:36;14.20;;;12.40;;
22812;SDS011;11573;51.334;3.244;2022-11-15T17:55:03;10.23;;;8.55;;
22812;SDS011;11573;51.334;3.244;2022-11-15T17:57:31;11.70;;;10.00;;
22812;SDS011;11573;51.334;3.244;2022-11-15T17:59:57;13.20;;;9.23;;
22812;SDS011;11573;51.334;3.244;2022-11-15T18:02:24;14.40;;;9.25;;
22812;SDS011;11573;51.334;3.244;2022-11-15T18:04:51;11.43;;;9.05;;
22812;SDS011;11573;51.334;3.244;2022-11-15T18:07:18;10.23;;;8.85;;
22812;SDS011;11573;51.334;3.244;2022-11-15T18:09:45;10.60;;;8.90;;
22812;SDS011;11573;51.334;3.244;2022-11-15T18:12:12;11.30;;;9.30;;
22812;SDS011;11573;51.334;3.244;2022-11-15T18:14:39;11.80;;;9.82;;
22812;SDS011;11573;51.334;3.244;2022-11-15T18:17:06;10.05;;;8.95;;
22812;SDS011;11573;51.334;3.244;2022-11-15T18:19:33;11.48;;;9.73;;
22812;SDS011;11573;51.334;3.244;2022-11-15T18:22:01;14.30;;;10.55;;
22812;SDS011;11573;51.334;3.244;2022-11-15T18:24:31;13.18;;;10.05;;
22812;SDS011;11573;51.334;3.244;2022-11-15T18:27:01;12.38;;;9.35;;
22812;SDS011;11573;51.334;3.244;2022-11-15T18:29:29;12.00;;;10.65;;
22812;SDS011;11573;51.334;3.244;2022-11-15T18:31:56;12.68;;;10.00;;
22812;SDS011;11573;51.334;3.244;2022-11-15T18:34:25;13.60;;;12.18;;
22812;SDS011;11573;51.334;3.244;2022-11-15T18:36:59;12.77;;;10.30;;
22812;SDS011;11573;51.334;3.244;2022-11-15T18:39:28;11.70;;;10.43;;
22812;SDS011;11573;51.334;3.244;2022-11-15T18:41:55;11.88;;;9.88;;
22812;SDS011;11573;51.334;3.244;2022-11-15T18:44:22;10.93;;;9.57;;
22812;SDS011;11573;51.334;3.244;2022-11-15T18:46:49;11.48;;;10.25;;
22812;SDS011;11573;51.334;3.244;2022-11-15T18:49:16;13.43;;;9.65;;
22812;SDS011;11573;51.334;3.244;2022-11-15T18:51:45;10.73;;;8.98;;